Matheson, Colorado
Current Conditions -  °F | °C
As of 12:55 PM on Thursday 30 Oct 2014 (Local Time) from KLIC Reporting Station
Clear Clear  
Wind Chill: 59°   Ceiling: Unl
Heat Index: 59°   Visibility: 10mi
Dew Point: 24°   Wind: 9mph
Humidity: 26%   Direction: 320°NW
Pressure: 30.36"   Gusts: NA
Location:  39.17°N, 103.98°W
Report Text: KLIC 301855Z AUTO 32008KT 10SM CLR 15/M04 A3036 RMK AO2 SLP254 T01501044
Loading
Personal Weather Stations






























Interactive Weather Map
Tropical Storm Tracking
New forecast layout! Learn more

10-Day Weather Forecast

Advertisements
Track Severe Weather on mobile